createdAt,value
2022-08-03T00:01:31.870Z,17.50
2022-08-03T00:03:59.025Z,15.07
2022-08-03T00:06:26.340Z,13.30
2022-08-03T00:08:53.452Z,18.25
2022-08-03T00:11:21.419Z,14.80
2022-08-03T00:13:48.805Z,15.43
2022-08-03T00:16:16.415Z,17.50
2022-08-03T00:18:43.563Z,21.63
2022-08-03T00:21:10.805Z,20.58
2022-08-03T00:23:51.427Z,22.38
2022-08-03T00:26:20.706Z,17.30
2022-08-03T00:28:48.226Z,18.63
2022-08-03T00:31:15.412Z,19.88
2022-08-03T00:33:59.659Z,29.17
2022-08-03T00:36:29.844Z,21.13
2022-08-03T00:38:57.059Z,15.63
2022-08-03T00:41:24.406Z,17.20
2022-08-03T00:43:51.717Z,19.50
2022-08-03T00:46:21.723Z,17.00
2022-08-03T00:48:52.765Z,14.30
2022-08-03T00:51:21.407Z,18.20
2022-08-03T00:53:49.095Z,16.55
2022-08-03T00:56:17.430Z,16.30
2022-08-03T00:58:46.570Z,17.45
2022-08-03T01:01:14.469Z,16.77
2022-08-03T01:03:41.669Z,11.90
2022-08-03T01:06:19.532Z,14.88
2022-08-03T01:08:49.175Z,15.43
2022-08-03T01:12:09.254Z,19.23
2022-08-03T01:15:01.644Z,14.32
2022-08-03T01:17:39.656Z,16.27
2022-08-03T01:20:11.964Z,14.25
2022-08-03T01:23:09.623Z,17.40
2022-08-03T01:26:24.356Z,13.52
2022-08-03T01:29:37.422Z,12.50
2022-08-03T01:32:53.305Z,11.45
2022-08-03T01:35:11.421Z,20.83
2022-08-03T01:37:50.124Z,14.07
2022-08-03T01:40:19.727Z,17.17
2022-08-03T01:42:47.998Z,15.05
2022-08-03T01:45:18.794Z,13.80
2022-08-03T01:47:47.378Z,13.00
2022-08-03T01:50:16.397Z,11.98
2022-08-03T01:52:47.451Z,12.85
2022-08-03T01:55:17.273Z,9.60
2022-08-03T01:58:05.316Z,9.35
2022-08-03T02:00:35.359Z,9.30
2022-08-03T02:03:05.516Z,9.65
2022-08-03T02:05:33.882Z,7.82
2022-08-03T02:08:03.871Z,8.02
2022-08-03T02:10:34.917Z,8.70
2022-08-03T02:13:05.369Z,9.07
2022-08-03T02:15:33.757Z,8.90
2022-08-03T02:18:03.422Z,10.75
2022-08-03T02:20:33.361Z,10.07
2022-08-03T02:23:00.519Z,8.77
2022-08-03T02:25:28.763Z,8.93
2022-08-03T02:27:58.737Z,8.82
2022-08-03T02:30:38.691Z,9.07
2022-08-03T02:33:11.409Z,11.48
2022-08-03T02:35:41.339Z,11.48
2022-08-03T02:38:10.788Z,6.47
2022-08-03T02:40:40.917Z,8.73
2022-08-03T02:43:17.129Z,5.95
2022-08-03T02:45:48.192Z,6.68
2022-08-03T02:48:23.398Z,10.82
2022-08-03T02:50:57.140Z,6.35
2022-08-03T02:53:27.378Z,9.18
2022-08-03T02:55:56.937Z,5.82
2022-08-03T02:58:25.793Z,8.73
2022-08-03T03:00:54.200Z,8.32
2022-08-03T03:03:23.384Z,12.77
2022-08-03T03:05:57.713Z,9.80
2022-08-03T03:08:28.867Z,10.27
2022-08-03T03:10:59.572Z,16.92
2022-08-03T03:13:30.265Z,10.13
2022-08-03T03:16:01.093Z,18.05
2022-08-03T03:18:29.266Z,12.98
2022-08-03T03:20:58.266Z,14.32
2022-08-03T03:23:26.373Z,10.23
2022-08-03T03:25:56.097Z,10.13
2022-08-03T03:28:24.845Z,10.70
2022-08-03T03:30:53.446Z,11.40
2022-08-03T03:33:24.241Z,10.77
2022-08-03T03:35:52.220Z,16.05
2022-08-03T03:38:20.020Z,17.23
2022-08-03T03:40:47.780Z,12.75
2022-08-03T03:43:15.040Z,13.20
2022-08-03T03:45:43.220Z,12.32
2022-08-03T03:48:10.681Z,10.93
2022-08-03T03:50:41.152Z,11.00
2022-08-03T03:53:12.946Z,10.33
2022-08-03T03:56:01.518Z,11.95
2022-08-03T03:58:28.359Z,9.95
2022-08-03T04:00:55.649Z,8.15
2022-08-03T04:03:22.740Z,7.32
2022-08-03T04:06:08.567Z,8.20
2022-08-03T04:08:54.267Z,8.23
2022-08-03T04:11:29.211Z,5.40
2022-08-03T04:14:11.032Z,7.40
2022-08-03T04:16:46.597Z,6.70
2022-08-03T04:19:23.541Z,5.40
2022-08-03T04:21:57.216Z,6.18
2022-08-03T04:24:27.993Z,4.63
2022-08-03T04:26:57.780Z,3.07
2022-08-03T04:29:28.757Z,4.05
2022-08-03T04:31:58.981Z,3.08
2022-08-03T04:34:26.090Z,2.95
2022-08-03T04:36:58.193Z,4.97
2022-08-03T04:39:27.922Z,2.47
2022-08-03T04:42:06.994Z,2.75
2022-08-03T04:44:42.179Z,2.17
2022-08-03T04:47:09.541Z,2.13
2022-08-03T04:49:38.145Z,1.90
2022-08-03T04:52:07.752Z,2.22
2022-08-03T04:54:42.909Z,2.20
2022-08-03T04:57:22.239Z,2.83
2022-08-03T05:00:01.283Z,2.20
2022-08-03T05:02:30.168Z,2.72
2022-08-03T05:04:57.578Z,5.30
2022-08-03T05:07:25.065Z,4.28
2022-08-03T05:10:01.854Z,6.78
2022-08-03T05:12:32.920Z,6.82
2022-08-03T05:15:01.108Z,5.43
2022-08-03T05:17:28.729Z,10.13
2022-08-03T05:19:56.346Z,6.03
2022-08-03T05:22:24.216Z,8.15
2022-08-03T05:24:51.350Z,10.50
2022-08-03T05:27:21.622Z,7.15
2022-08-03T05:29:50.258Z,9.82
2022-08-03T05:32:18.238Z,7.65
2022-08-03T05:34:45.734Z,8.13
2022-08-03T05:37:13.010Z,8.50
2022-08-03T05:39:40.131Z,11.07
2022-08-03T05:42:07.448Z,11.48
2022-08-03T05:44:34.597Z,13.85
2022-08-03T05:47:01.652Z,13.73
2022-08-03T05:49:28.743Z,10.18
2022-08-03T05:52:08.743Z,18.75
2022-08-03T05:54:56.987Z,10.88
2022-08-03T05:57:25.763Z,14.13
2022-08-03T05:59:53.989Z,14.48
2022-08-03T06:02:25.179Z,11.40
2022-08-03T06:04:52.260Z,14.77
2022-08-03T06:07:19.318Z,15.68
2022-08-03T06:10:36.502Z,17.08
2022-08-03T06:12:36.331Z,15.27
2022-08-03T06:15:05.058Z,16.52
2022-08-03T06:17:37.142Z,16.38
2022-08-03T06:20:06.239Z,14.10
2022-08-03T06:22:33.439Z,19.60
2022-08-03T06:25:04.076Z,14.50
2022-08-03T06:27:37.119Z,12.13
2022-08-03T06:30:05.543Z,15.38
2022-08-03T06:32:33.866Z,13.27
2022-08-03T06:35:01.299Z,15.65
2022-08-03T06:37:29.022Z,20.38
2022-08-03T06:39:56.235Z,12.48
2022-08-03T06:42:23.292Z,15.02
2022-08-03T06:44:52.374Z,22.92
2022-08-03T06:47:19.549Z,15.25
2022-08-03T06:50:12.989Z,14.85
2022-08-03T06:52:38.183Z,16.17
2022-08-03T06:55:06.649Z,12.23
2022-08-03T06:57:33.925Z,13.98
2022-08-03T07:00:08.895Z,16.85
2022-08-03T07:02:40.150Z,16.70
2022-08-03T07:05:09.077Z,14.75
2022-08-03T07:07:36.798Z,14.93
2022-08-03T07:10:05.608Z,15.75
2022-08-03T07:12:33.991Z,17.50
2022-08-03T07:15:03.298Z,16.73
2022-08-03T07:17:33.065Z,14.50
2022-08-03T07:20:01.561Z,12.30
2022-08-03T07:22:28.979Z,12.77
2022-08-03T07:24:56.874Z,15.35
2022-08-03T07:27:27.097Z,12.90
2022-08-03T07:29:54.987Z,10.27
2022-08-03T07:32:22.223Z,12.02
2022-08-03T07:34:49.304Z,14.10
2022-08-03T07:37:16.413Z,9.55
2022-08-03T07:39:43.663Z,10.90
2022-08-03T07:42:10.831Z,11.40
2022-08-03T07:44:39.517Z,10.88
2022-08-03T07:47:06.772Z,8.43
2022-08-03T07:49:40.361Z,9.00
2022-08-03T07:55:08.331Z,11.52
2022-08-03T07:57:35.893Z,11.40
2022-08-03T08:00:09.189Z,9.52
2022-08-03T08:02:36.245Z,9.48
2022-08-03T08:05:05.691Z,8.50
2022-08-03T08:07:33.456Z,11.10
2022-08-03T08:10:00.479Z,9.10
2022-08-03T08:12:27.533Z,9.20
2022-08-03T08:14:54.738Z,9.98
2022-08-03T08:17:21.939Z,9.90
2022-08-03T08:19:51.732Z,11.55
2022-08-03T08:22:25.873Z,11.43
2022-08-03T08:24:58.724Z,10.65
2022-08-03T08:27:26.870Z,10.70
2022-08-03T08:29:58.854Z,7.32
2022-08-03T08:32:30.397Z,8.57
2022-08-03T08:34:58.225Z,10.20
2022-08-03T08:37:25.709Z,11.50
2022-08-03T08:39:53.771Z,13.73
2022-08-03T08:42:21.540Z,9.05
2022-08-03T08:44:49.793Z,8.32
2022-08-03T08:47:20.190Z,5.47
2022-08-03T08:50:08.856Z,13.70
2022-08-03T08:52:40.305Z,9.65
2022-08-03T08:55:10.924Z,8.98
2022-08-03T08:57:43.964Z,9.10
2022-08-03T09:00:15.630Z,9.35
2022-08-03T09:02:44.890Z,11.40
2022-08-03T09:05:17.490Z,11.10
2022-08-03T09:07:47.209Z,6.97
2022-08-03T09:10:20.189Z,11.35
2022-08-03T09:12:50.256Z,6.45
2022-08-03T09:15:27.508Z,6.47
2022-08-03T09:17:58.871Z,7.82
2022-08-03T09:23:00.314Z,9.00
2022-08-03T09:25:30.180Z,11.27
2022-08-03T09:28:54.030Z,7.63
2022-08-03T09:31:03.071Z,5.78
2022-08-03T09:33:36.057Z,13.05
2022-08-03T09:36:04.386Z,9.52
2022-08-03T09:38:32.383Z,8.27
2022-08-03T09:41:00.784Z,9.55
2022-08-03T09:43:30.244Z,13.55
2022-08-03T09:46:07.896Z,6.53
2022-08-03T09:48:37.425Z,6.55
2022-08-03T09:51:13.649Z,8.13
2022-08-03T09:53:59.678Z,7.53
2022-08-03T09:56:41.439Z,7.70
2022-08-03T09:59:10.208Z,5.78
2022-08-03T10:01:42.047Z,6.80
2022-08-03T10:04:17.462Z,8.18
2022-08-03T10:07:03.223Z,5.57
2022-08-03T10:09:31.583Z,9.98
2022-08-03T10:12:11.396Z,6.95
2022-08-03T10:14:40.772Z,10.70
2022-08-03T10:17:10.146Z,9.32
2022-08-03T10:19:38.365Z,9.27
2022-08-03T10:22:13.924Z,8.88
2022-08-03T10:24:54.816Z,10.20
2022-08-03T10:27:24.517Z,8.07
2022-08-03T10:29:55.503Z,9.95
2022-08-03T10:32:51.203Z,8.35
2022-08-03T10:35:23.957Z,8.98
2022-08-03T10:40:49.622Z,7.93
2022-08-03T10:43:26.729Z,8.88
2022-08-03T10:45:54.736Z,8.10
2022-08-03T10:48:22.960Z,8.93
2022-08-03T10:50:51.844Z,11.13
2022-08-03T10:53:37.403Z,9.10
2022-08-03T10:56:35.811Z,9.48
2022-08-03T10:59:12.049Z,11.27
2022-08-03T11:01:59.911Z,10.37
2022-08-03T11:04:30.459Z,10.18
2022-08-03T11:07:27.975Z,11.45
2022-08-03T11:09:57.048Z,8.35
2022-08-03T11:12:35.018Z,8.13
2022-08-03T11:15:07.651Z,8.80
2022-08-03T11:17:46.582Z,10.40
2022-08-03T11:20:52.004Z,12.02
2022-08-03T11:24:04.259Z,11.75
2022-08-03T11:26:27.714Z,7.47
2022-08-03T11:29:28.159Z,9.63
2022-08-03T11:31:55.387Z,11.80
2022-08-03T11:34:22.841Z,10.13
2022-08-03T11:37:22.994Z,10.57
2022-08-03T11:39:53.144Z,11.30
2022-08-03T11:42:27.139Z,10.13
2022-08-03T11:44:56.920Z,9.30
2022-08-03T11:47:27.160Z,12.00
2022-08-03T11:50:00.769Z,10.32
2022-08-03T11:52:34.142Z,13.30
2022-08-03T11:55:02.000Z,10.32
2022-08-03T11:59:17.904Z,9.07
2022-08-03T12:00:40.896Z,10.23
2022-08-03T12:03:12.277Z,9.98
2022-08-03T12:05:51.568Z,5.90
2022-08-03T12:08:40.369Z,10.88
2022-08-03T12:11:10.061Z,8.50
2022-08-03T12:14:08.823Z,7.70
2022-08-03T12:16:32.953Z,6.85
2022-08-03T12:19:02.584Z,8.25
2022-08-03T12:21:30.582Z,10.55
2022-08-03T12:24:03.706Z,11.07
2022-08-03T12:26:43.004Z,11.90
2022-08-03T12:29:21.245Z,7.38
2022-08-03T12:31:49.351Z,8.50
2022-08-03T12:34:16.650Z,10.88
2022-08-03T12:36:57.159Z,9.05
2022-08-03T12:39:26.747Z,7.45
2022-08-03T12:41:55.480Z,11.50
2022-08-03T12:44:33.357Z,8.15
2022-08-03T12:47:02.179Z,10.18
2022-08-03T12:49:30.448Z,14.98
2022-08-03T12:52:05.362Z,8.27
2022-08-03T12:54:36.164Z,10.43
2022-08-03T12:57:15.696Z,8.40
2022-08-03T12:59:56.071Z,8.77
2022-08-03T13:02:26.408Z,9.52
2022-08-03T13:04:54.965Z,8.45
2022-08-03T13:07:23.268Z,10.52
2022-08-03T13:09:56.558Z,10.38
2022-08-03T13:12:25.349Z,8.95
2022-08-03T13:14:57.138Z,6.72
2022-08-03T13:17:24.805Z,11.18
2022-08-03T13:19:52.385Z,9.23
2022-08-03T13:22:21.704Z,12.32
2022-08-03T13:24:51.769Z,7.65
2022-08-03T13:28:02.255Z,8.02
2022-08-03T13:30:07.743Z,8.55
2022-08-03T13:32:35.769Z,7.68
2022-08-03T13:35:03.200Z,7.20
2022-08-03T13:37:32.728Z,9.57
2022-08-03T13:40:02.726Z,8.32
2022-08-03T13:42:32.404Z,9.50
2022-08-03T13:45:00.616Z,10.00
2022-08-03T13:47:28.040Z,6.97
2022-08-03T13:50:01.486Z,7.65
2022-08-03T13:52:36.470Z,5.82
2022-08-03T13:55:05.880Z,6.78
2022-08-03T13:58:02.821Z,9.55
2022-08-03T14:00:27.640Z,10.27
2022-08-03T14:03:16.395Z,8.23
2022-08-03T14:05:44.434Z,13.85
2022-08-03T14:08:12.577Z,9.43
2022-08-03T14:10:42.686Z,14.05
2022-08-03T14:13:12.349Z,9.88
2022-08-03T14:15:39.547Z,8.25
2022-08-03T14:18:15.799Z,9.65
2022-08-03T14:20:53.023Z,8.25
2022-08-03T14:23:23.169Z,9.38
2022-08-03T14:25:52.465Z,4.70
2022-08-03T14:28:22.943Z,5.78
2022-08-03T14:30:51.929Z,11.07
2022-08-03T14:33:19.530Z,10.27
2022-08-03T14:35:46.742Z,7.10
2022-08-03T14:38:13.929Z,3.72
2022-08-03T14:40:41.597Z,10.13
2022-08-03T14:43:08.736Z,8.10
2022-08-03T14:45:35.847Z,7.55
2022-08-03T14:50:29.095Z,9.48
2022-08-03T14:50:56.940Z,10.63
2022-08-03T14:53:24.364Z,6.43
2022-08-03T14:55:53.492Z,9.35
2022-08-03T14:58:25.490Z,8.40
2022-08-03T15:00:54.143Z,10.15
2022-08-03T15:03:24.940Z,10.52
2022-08-03T15:05:53.873Z,10.57
2022-08-03T15:08:21.712Z,7.80
2022-08-03T15:10:49.538Z,7.20
2022-08-03T15:13:17.433Z,10.27
2022-08-03T15:15:44.737Z,7.85
2022-08-03T15:18:12.210Z,4.88
2022-08-03T15:20:44.944Z,9.88
2022-08-03T15:23:14.875Z,9.32
2022-08-03T15:26:04.089Z,6.68
2022-08-03T15:28:30.458Z,4.45
2022-08-03T15:30:57.700Z,4.90
2022-08-03T15:33:24.943Z,5.45
2022-08-03T15:35:53.170Z,7.00
2022-08-03T15:38:25.764Z,7.38
2022-08-03T15:40:57.120Z,6.28
2022-08-03T15:43:24.501Z,8.13
2022-08-03T15:46:12.803Z,5.18
2022-08-03T15:48:40.036Z,4.15
2022-08-03T15:51:08.065Z,10.85
2022-08-03T15:53:35.232Z,7.97
2022-08-03T15:56:11.236Z,9.70
2022-08-03T15:59:09.487Z,3.97
2022-08-03T16:01:27.763Z,8.32
2022-08-03T16:03:55.022Z,9.07
2022-08-03T16:06:35.188Z,7.70
2022-08-03T16:09:23.823Z,8.38
2022-08-03T16:11:53.194Z,6.18
2022-08-03T16:14:32.338Z,6.32
2022-08-03T16:17:00.525Z,6.18
2022-08-03T16:19:28.326Z,4.00
2022-08-03T16:21:55.479Z,8.18
2022-08-03T16:24:28.045Z,7.90
2022-08-03T16:29:23.836Z,8.38
2022-08-03T16:31:52.247Z,3.70
2022-08-03T16:34:20.613Z,4.55
2022-08-03T16:36:47.822Z,5.78
2022-08-03T16:39:15.011Z,5.35
2022-08-03T16:41:54.077Z,7.22
2022-08-03T16:44:30.886Z,7.93
2022-08-03T16:46:59.166Z,8.25
2022-08-03T16:49:53.820Z,5.78
2022-08-03T16:52:13.536Z,4.80
2022-08-03T16:54:44.181Z,5.15
2022-08-03T16:57:58.586Z,7.68
2022-08-03T17:00:08.304Z,6.40
2022-08-03T17:02:36.522Z,6.95
2022-08-03T17:05:04.097Z,7.97
2022-08-03T17:07:31.143Z,5.30
2022-08-03T17:10:00.461Z,8.82
2022-08-03T17:12:27.755Z,4.88
2022-08-03T17:14:57.235Z,7.53
2022-08-03T17:17:30.202Z,8.07
2022-08-03T17:20:15.629Z,7.15
2022-08-03T17:22:55.760Z,7.75
2022-08-03T17:25:51.520Z,5.95
2022-08-03T17:28:49.150Z,8.90
2022-08-03T17:31:23.188Z,6.88
2022-08-03T17:34:00.463Z,8.05
2022-08-03T17:39:17.345Z,8.70
2022-08-03T17:41:50.082Z,6.47
2022-08-03T17:44:30.184Z,4.35
2022-08-03T17:47:02.280Z,9.32
2022-08-03T17:49:29.618Z,8.85
2022-08-03T17:52:06.920Z,6.20
2022-08-03T17:55:50.729Z,5.18
2022-08-03T17:58:02.559Z,3.53
2022-08-03T18:00:51.838Z,8.77
2022-08-03T18:03:58.041Z,6.00
2022-08-03T18:06:30.766Z,7.35
2022-08-03T18:09:04.801Z,13.35
2022-08-03T18:11:35.480Z,5.38
2022-08-03T18:14:19.240Z,4.45
2022-08-03T18:17:01.560Z,9.20
2022-08-03T18:20:01.403Z,7.18
2022-08-03T18:22:21.074Z,6.43
2022-08-03T18:24:53.537Z,6.57
2022-08-03T18:27:22.478Z,8.02
2022-08-03T18:29:50.688Z,8.48
2022-08-03T18:32:18.652Z,7.57
2022-08-03T18:34:53.595Z,6.65
2022-08-03T18:37:25.353Z,5.85
2022-08-03T18:42:25.802Z,8.40
2022-08-03T18:44:56.128Z,6.68
2022-08-03T18:47:50.957Z,6.50
2022-08-03T18:50:25.855Z,7.53
2022-08-03T18:53:16.675Z,8.32
2022-08-03T18:56:25.465Z,6.40
2022-08-03T18:59:15.782Z,6.72
2022-08-03T19:01:59.782Z,3.88
2022-08-03T19:04:53.964Z,7.90
2022-08-03T19:07:29.081Z,7.13
2022-08-03T19:10:05.328Z,4.38
2022-08-03T19:12:40.659Z,8.48
2022-08-03T19:15:12.720Z,7.45
2022-08-03T19:17:52.599Z,8.98
2022-08-03T19:20:22.684Z,7.82
2022-08-03T19:22:53.473Z,6.70
2022-08-03T19:25:20.742Z,5.50
2022-08-03T19:28:06.055Z,4.10
2022-08-03T19:30:40.210Z,5.35
2022-08-03T19:33:15.974Z,6.10
2022-08-03T19:35:55.436Z,7.18
2022-08-03T19:38:28.579Z,8.18
2022-08-03T19:41:03.181Z,6.13
2022-08-03T19:43:53.836Z,6.43
2022-08-03T19:46:30.668Z,8.00
2022-08-03T19:49:14.838Z,6.90
2022-08-03T19:52:00.759Z,8.77
2022-08-03T19:54:52.889Z,6.95
2022-08-03T19:57:25.726Z,5.10
2022-08-03T19:59:55.926Z,9.38
2022-08-03T20:02:26.052Z,7.68
2022-08-03T20:04:57.560Z,7.70
2022-08-03T20:07:30.538Z,7.97
2022-08-03T20:10:01.356Z,9.25
2022-08-03T20:12:33.190Z,5.10
2022-08-03T20:15:07.004Z,5.32
2022-08-03T20:17:56.988Z,5.07
2022-08-03T20:20:33.236Z,8.60
2022-08-03T20:23:06.851Z,6.18
2022-08-03T20:25:48.864Z,6.32
2022-08-03T20:28:30.125Z,8.93
2022-08-03T20:30:58.283Z,8.25
2022-08-03T20:33:45.789Z,9.38
2022-08-03T20:36:18.097Z,5.80
2022-08-03T20:38:48.033Z,8.75
2022-08-03T20:41:17.569Z,5.40
2022-08-03T20:43:45.594Z,6.50
2022-08-03T20:49:06.689Z,8.63
2022-08-03T20:51:49.566Z,7.88
2022-08-03T20:54:30.737Z,6.13
2022-08-03T20:57:03.606Z,9.45
2022-08-03T20:59:50.860Z,7.70
2022-08-03T21:02:30.037Z,18.35
2022-08-03T21:05:08.428Z,10.27
2022-08-03T21:08:05.138Z,8.80
2022-08-03T21:10:37.869Z,9.07
2022-08-03T21:13:12.822Z,4.78
2022-08-03T21:13:24.866Z,9.27
2022-08-03T21:16:01.159Z,6.13
2022-08-03T21:18:52.267Z,6.93
2022-08-03T21:21:22.259Z,7.78
2022-08-03T21:23:54.256Z,9.15
2022-08-03T21:26:24.029Z,7.57
2022-08-03T21:28:55.163Z,6.65
2022-08-03T21:31:26.233Z,9.32
2022-08-03T21:34:05.575Z,5.90
2022-08-03T21:36:35.131Z,10.20
2022-08-03T21:39:04.582Z,8.10
2022-08-03T21:41:32.973Z,11.68
2022-08-03T21:44:01.310Z,8.65
2022-08-03T21:46:35.189Z,6.32
2022-08-03T21:50:07.621Z,11.70
2022-08-03T21:51:59.745Z,7.18
2022-08-03T21:54:36.132Z,9.05
2022-08-03T21:57:13.648Z,13.85
2022-08-03T21:59:46.039Z,10.80
2022-08-03T22:02:24.411Z,9.70
2022-08-03T22:04:56.413Z,13.77
2022-08-03T22:07:27.466Z,10.15
2022-08-03T22:10:01.107Z,13.07
2022-08-03T22:12:31.087Z,6.75
2022-08-03T22:15:01.631Z,9.43
2022-08-03T22:17:53.954Z,6.38
2022-08-03T22:20:21.362Z,8.60
2022-08-03T22:22:55.186Z,11.68
2022-08-03T22:25:31.817Z,9.13
2022-08-03T22:28:02.291Z,8.90
2022-08-03T22:30:29.840Z,10.13
2022-08-03T22:32:58.764Z,14.68
2022-08-03T22:35:27.857Z,10.95
2022-08-03T22:37:57.420Z,7.00
2022-08-03T22:40:25.123Z,15.10
2022-08-03T22:42:52.759Z,8.15
2022-08-03T22:45:45.768Z,5.93
2022-08-03T22:48:08.607Z,12.88
2022-08-03T22:50:36.098Z,13.60
2022-08-03T22:53:03.907Z,11.20
2022-08-03T22:55:34.389Z,14.25
2022-08-03T22:58:01.887Z,8.13
2022-08-03T23:00:29.292Z,9.55
2022-08-03T23:03:00.842Z,9.35
2022-08-03T23:06:00.649Z,11.75
2022-08-03T23:08:25.137Z,8.40
2022-08-03T23:10:54.322Z,12.15
2022-08-03T23:13:25.698Z,9.38
2022-08-03T23:18:25.618Z,5.47
2022-08-03T23:20:54.669Z,8.70
2022-08-03T23:23:23.995Z,10.68
2022-08-03T23:25:52.396Z,13.63
2022-08-03T23:28:20.047Z,9.93
2022-08-03T23:30:51.329Z,11.05
2022-08-03T23:36:28.778Z,14.25
2022-08-03T23:38:49.041Z,10.93
2022-08-03T23:41:19.971Z,9.30
2022-08-03T23:43:52.163Z,15.48
2022-08-03T23:46:26.527Z,9.75
2022-08-03T23:48:56.717Z,8.63
2022-08-03T23:51:48.848Z,10.80
2022-08-03T23:54:49.520Z,12.63
2022-08-03T23:57:26.822Z,11.88
